sensor_id;sensor_type;location;lat;lon;timestamp;temperature;humidity
2190;DHT22;1101;51.056;7.262;2023-02-24T00:01:25;6.70;99.90
2190;DHT22;1101;51.056;7.262;2023-02-24T00:03:55;6.70;99.90
2190;DHT22;1101;51.056;7.262;2023-02-24T00:06:26;6.70;99.90
2190;DHT22;1101;51.056;7.262;2023-02-24T00:09:02;6.70;99.90
2190;DHT22;1101;51.056;7.262;2023-02-24T00:11:34;6.70;99.90
2190;DHT22;1101;51.056;7.262;2023-02-24T00:14:04;6.70;99.90
2190;DHT22;1101;51.056;7.262;2023-02-24T00:16:32;6.70;99.90
2190;DHT22;1101;51.056;7.262;2023-02-24T00:19:01;6.70;99.90
2190;DHT22;1101;51.056;7.262;2023-02-24T00:21:30;6.60;99.90
2190;DHT22;1101;51.056;7.262;2023-02-24T00:23:58;6.60;99.90
2190;DHT22;1101;51.056;7.262;2023-02-24T00:26:27;6.60;99.90
2190;DHT22;1101;51.056;7.262;2023-02-24T00:28:55;6.60;99.90
2190;DHT22;1101;51.056;7.262;2023-02-24T00:31:26;6.60;99.90
2190;DHT22;1101;51.056;7.262;2023-02-24T00:33:57;6.60;99.90
2190;DHT22;1101;51.056;7.262;2023-02-24T00:36:27;6.60;99.90
2190;DHT22;1101;51.056;7.262;2023-02-24T00:38:57;6.60;99.90
2190;DHT22;1101;51.056;7.262;2023-02-24T00:41:27;6.60;99.90
2190;DHT22;1101;51.056;7.262;2023-02-24T00:43:57;6.60;99.90
2190;DHT22;1101;51.056;7.262;2023-02-24T00:46:33;6.60;99.90
2190;DHT22;1101;51.056;7.262;2023-02-24T00:49:03;6.60;99.90
2190;DHT22;1101;51.056;7.262;2023-02-24T00:51:35;6.60;99.90
2190;DHT22;1101;51.056;7.262;2023-02-24T00:54:05;6.60;99.90
2190;DHT22;1101;51.056;7.262;2023-02-24T00:56:33;6.60;99.90
2190;DHT22;1101;51.056;7.262;2023-02-24T00:59:01;6.50;99.90
2190;DHT22;1101;51.056;7.262;2023-02-24T01:01:31;6.50;99.90
2190;DHT22;1101;51.056;7.262;2023-02-24T01:04:01;6.50;99.90
2190;DHT22;1101;51.056;7.262;2023-02-24T01:06:37;6.50;99.90
2190;DHT22;1101;51.056;7.262;2023-02-24T01:09:08;6.40;99.90
2190;DHT22;1101;51.056;7.262;2023-02-24T01:11:39;6.40;99.90
2190;DHT22;1101;51.056;7.262;2023-02-24T01:14:26;6.30;99.90
2190;DHT22;1101;51.056;7.262;2023-02-24T01:16:55;6.30;99.90
2190;DHT22;1101;51.056;7.262;2023-02-24T01:19:26;6.20;99.90
2190;DHT22;1101;51.056;7.262;2023-02-24T01:21:57;6.20;99.90
2190;DHT22;1101;51.056;7.262;2023-02-24T01:24:29;6.20;99.90
2190;DHT22;1101;51.056;7.262;2023-02-24T01:26:57;6.20;99.90
2190;DHT22;1101;51.056;7.262;2023-02-24T01:29:25;6.20;99.90
2190;DHT22;1101;51.056;7.262;2023-02-24T01:31:53;6.20;99.90
2190;DHT22;1101;51.056;7.262;2023-02-24T01:34:25;6.20;99.90
2190;DHT22;1101;51.056;7.262;2023-02-24T01:36:53;6.20;99.90
2190;DHT22;1101;51.056;7.262;2023-02-24T01:39:21;6.10;99.90
2190;DHT22;1101;51.056;7.262;2023-02-24T01:41:50;6.10;99.90
2190;DHT22;1101;51.056;7.262;2023-02-24T01:47:25;5.90;99.90
2190;DHT22;1101;51.056;7.262;2023-02-24T01:49:56;5.90;99.90
2190;DHT22;1101;51.056;7.262;2023-02-24T01:52:26;5.90;99.90
2190;DHT22;1101;51.056;7.262;2023-02-24T01:55:00;5.80;99.90
2190;DHT22;1101;51.056;7.262;2023-02-24T01:57:32;5.80;99.90
2190;DHT22;1101;51.056;7.262;2023-02-24T02:00:04;5.80;99.90
2190;DHT22;1101;51.056;7.262;2023-02-24T02:02:56;5.80;99.90
2190;DHT22;1101;51.056;7.262;2023-02-24T02:05:26;5.70;99.90
2190;DHT22;1101;51.056;7.262;2023-02-24T02:07:54;5.70;99.90
2190;DHT22;1101;51.056;7.262;2023-02-24T02:10:22;5.70;99.90
2190;DHT22;1101;51.056;7.262;2023-02-24T02:12:53;5.70;99.90
2190;DHT22;1101;51.056;7.262;2023-02-24T02:15:22;5.70;99.90
2190;DHT22;1101;51.056;7.262;2023-02-24T02:17:55;5.70;99.90
2190;DHT22;1101;51.056;7.262;2023-02-24T02:20:46;5.70;99.90
2190;DHT22;1101;51.056;7.262;2023-02-24T02:26:34;5.60;99.90
2190;DHT22;1101;51.056;7.262;2023-02-24T02:29:46;5.60;99.90
2190;DHT22;1101;51.056;7.262;2023-02-24T02:32:50;5.50;99.90
2190;DHT22;1101;51.056;7.262;2023-02-24T02:35:33;5.50;99.90
2190;DHT22;1101;51.056;7.262;2023-02-24T02:38:09;5.40;99.90
2190;DHT22;1101;51.056;7.262;2023-02-24T02:40:44;5.40;99.90
2190;DHT22;1101;51.056;7.262;2023-02-24T02:43:18;5.40;99.90
2190;DHT22;1101;51.056;7.262;2023-02-24T02:45:55;5.30;99.90
2190;DHT22;1101;51.056;7.262;2023-02-24T02:48:29;5.30;99.90
2190;DHT22;1101;51.056;7.262;2023-02-24T02:51:03;5.30;99.90
2190;DHT22;1101;51.056;7.262;2023-02-24T02:53:40;5.30;99.90
2190;DHT22;1101;51.056;7.262;2023-02-24T02:56:15;5.20;99.90
2190;DHT22;1101;51.056;7.262;2023-02-24T02:58:46;5.20;99.90
2190;DHT22;1101;51.056;7.262;2023-02-24T03:01:16;5.20;99.90
2190;DHT22;1101;51.056;7.262;2023-02-24T03:03:50;5.20;99.90
2190;DHT22;1101;51.056;7.262;2023-02-24T03:06:23;5.20;99.90
2190;DHT22;1101;51.056;7.262;2023-02-24T03:08:58;5.20;99.90
2190;DHT22;1101;51.056;7.262;2023-02-24T03:11:26;5.20;99.90
2190;DHT22;1101;51.056;7.262;2023-02-24T03:13:57;5.10;99.90
2190;DHT22;1101;51.056;7.262;2023-02-24T03:16:28;5.10;99.90
2190;DHT22;1101;51.056;7.262;2023-02-24T03:18:58;5.10;99.90
2190;DHT22;1101;51.056;7.262;2023-02-24T03:21:33;5.10;99.90
2190;DHT22;1101;51.056;7.262;2023-02-24T03:24:04;5.10;99.90
2190;DHT22;1101;51.056;7.262;2023-02-24T03:26:36;5.00;99.90
2190;DHT22;1101;51.056;7.262;2023-02-24T03:29:10;5.00;99.90
2190;DHT22;1101;51.056;7.262;2023-02-24T03:31:45;5.00;99.90
2190;DHT22;1101;51.056;7.262;2023-02-24T03:34:18;4.90;99.90
2190;DHT22;1101;51.056;7.262;2023-02-24T03:36:50;4.90;99.90
2190;DHT22;1101;51.056;7.262;2023-02-24T03:39:20;4.80;99.90
2190;DHT22;1101;51.056;7.262;2023-02-24T03:41:51;4.80;99.90
2190;DHT22;1101;51.056;7.262;2023-02-24T03:44:21;4.80;99.90
2190;DHT22;1101;51.056;7.262;2023-02-24T03:46:50;4.80;99.90
2190;DHT22;1101;51.056;7.262;2023-02-24T03:49:18;4.70;99.90
2190;DHT22;1101;51.056;7.262;2023-02-24T03:51:57;4.70;99.90
2190;DHT22;1101;51.056;7.262;2023-02-24T03:54:47;4.70;99.90
2190;DHT22;1101;51.056;7.262;2023-02-24T03:57:25;4.70;99.90
2190;DHT22;1101;51.056;7.262;2023-02-24T03:59:59;4.70;99.90
2190;DHT22;1101;51.056;7.262;2023-02-24T04:02:59;4.70;99.90
2190;DHT22;1101;51.056;7.262;2023-02-24T04:05:31;4.70;99.90
2190;DHT22;1101;51.056;7.262;2023-02-24T04:08:06;4.70;99.90
2190;DHT22;1101;51.056;7.262;2023-02-24T04:10:40;4.70;99.90
2190;DHT22;1101;51.056;7.262;2023-02-24T04:13:22;4.70;99.90
2190;DHT22;1101;51.056;7.262;2023-02-24T04:15:59;4.70;99.90
2190;DHT22;1101;51.056;7.262;2023-02-24T04:18:30;4.70;99.90
2190;DHT22;1101;51.056;7.262;2023-02-24T04:21:02;4.70;99.90
2190;DHT22;1101;51.056;7.262;2023-02-24T04:23:36;4.70;99.90
2190;DHT22;1101;51.056;7.262;2023-02-24T04:26:06;4.70;99.90
2190;DHT22;1101;51.056;7.262;2023-02-24T04:28:35;4.70;99.90
2190;DHT22;1101;51.056;7.262;2023-02-24T04:31:06;4.70;99.90
2190;DHT22;1101;51.056;7.262;2023-02-24T04:33:36;4.70;99.90
2190;DHT22;1101;51.056;7.262;2023-02-24T04:36:05;4.60;99.90
2190;DHT22;1101;51.056;7.262;2023-02-24T04:38:35;4.60;99.90
2190;DHT22;1101;51.056;7.262;2023-02-24T04:41:03;4.60;99.90
2190;DHT22;1101;51.056;7.262;2023-02-24T04:43:31;4.50;99.90
2190;DHT22;1101;51.056;7.262;2023-02-24T04:45:59;4.60;99.90
2190;DHT22;1101;51.056;7.262;2023-02-24T04:48:33;4.50;99.90
2190;DHT22;1101;51.056;7.262;2023-02-24T04:51:01;4.50;99.90
2190;DHT22;1101;51.056;7.262;2023-02-24T04:53:32;4.50;99.90
2190;DHT22;1101;51.056;7.262;2023-02-24T04:56:04;4.50;99.90
2190;DHT22;1101;51.056;7.262;2023-02-24T04:58:35;4.40;99.90
2190;DHT22;1101;51.056;7.262;2023-02-24T05:01:06;4.40;99.90
2190;DHT22;1101;51.056;7.262;2023-02-24T05:03:36;4.40;99.90
2190;DHT22;1101;51.056;7.262;2023-02-24T05:06:12;4.40;99.90
2190;DHT22;1101;51.056;7.262;2023-02-24T05:08:42;4.30;99.90
2190;DHT22;1101;51.056;7.262;2023-02-24T05:11:13;4.30;99.90
2190;DHT22;1101;51.056;7.262;2023-02-24T05:13:43;4.30;99.90
2190;DHT22;1101;51.056;7.262;2023-02-24T05:16:13;4.20;99.90
2190;DHT22;1101;51.056;7.262;2023-02-24T05:18:42;4.20;99.90
2190;DHT22;1101;51.056;7.262;2023-02-24T05:21:12;4.10;99.90
2190;DHT22;1101;51.056;7.262;2023-02-24T05:23:58;4.10;99.90
2190;DHT22;1101;51.056;7.262;2023-02-24T05:26:34;4.00;99.90
2190;DHT22;1101;51.056;7.262;2023-02-24T05:29:05;3.90;99.90
2190;DHT22;1101;51.056;7.262;2023-02-24T05:31:33;3.90;99.90
2190;DHT22;1101;51.056;7.262;2023-02-24T05:34:03;3.80;99.90
2190;DHT22;1101;51.056;7.262;2023-02-24T05:36:34;3.80;99.90
2190;DHT22;1101;51.056;7.262;2023-02-24T05:39:05;3.80;99.90
2190;DHT22;1101;51.056;7.262;2023-02-24T05:41:37;3.70;99.90
2190;DHT22;1101;51.056;7.262;2023-02-24T05:44:06;3.70;99.90
2190;DHT22;1101;51.056;7.262;2023-02-24T05:46:37;3.70;99.90
2190;DHT22;1101;51.056;7.262;2023-02-24T05:49:09;3.70;99.90
2190;DHT22;1101;51.056;7.262;2023-02-24T05:51:40;3.60;99.90
2190;DHT22;1101;51.056;7.262;2023-02-24T05:54:21;3.60;99.90
2190;DHT22;1101;51.056;7.262;2023-02-24T05:56:50;3.60;99.90
2190;DHT22;1101;51.056;7.262;2023-02-24T05:59:18;3.60;99.90
2190;DHT22;1101;51.056;7.262;2023-02-24T06:01:48;3.60;99.90
2190;DHT22;1101;51.056;7.262;2023-02-24T06:04:19;3.60;99.90
2190;DHT22;1101;51.056;7.262;2023-02-24T06:07:06;3.60;99.90
2190;DHT22;1101;51.056;7.262;2023-02-24T06:09:34;3.60;99.90
2190;DHT22;1101;51.056;7.262;2023-02-24T06:12:07;3.60;99.90
2190;DHT22;1101;51.056;7.262;2023-02-24T06:14:34;3.60;99.90
2190;DHT22;1101;51.056;7.262;2023-02-24T06:17:03;3.60;99.90
2190;DHT22;1101;51.056;7.262;2023-02-24T06:19:31;3.60;99.90
2190;DHT22;1101;51.056;7.262;2023-02-24T06:22:00;3.60;99.90
2190;DHT22;1101;51.056;7.262;2023-02-24T06:24:28;3.60;99.90
2190;DHT22;1101;51.056;7.262;2023-02-24T06:26:57;3.50;99.90
2190;DHT22;1101;51.056;7.262;2023-02-24T06:29:29;3.50;99.90
2190;DHT22;1101;51.056;7.262;2023-02-24T06:31:57;3.40;99.90
2190;DHT22;1101;51.056;7.262;2023-02-24T06:34:25;3.40;99.90
2190;DHT22;1101;51.056;7.262;2023-02-24T06:36:53;3.50;99.90
2190;DHT22;1101;51.056;7.262;2023-02-24T06:39:21;3.40;99.90
2190;DHT22;1101;51.056;7.262;2023-02-24T06:41:49;3.40;99.90
2190;DHT22;1101;51.056;7.262;2023-02-24T06:44:18;3.40;99.90
2190;DHT22;1101;51.056;7.262;2023-02-24T06:46:47;3.50;99.90
2190;DHT22;1101;51.056;7.262;2023-02-24T06:49:15;3.50;99.90
2190;DHT22;1101;51.056;7.262;2023-02-24T06:51:43;3.50;99.90
2190;DHT22;1101;51.056;7.262;2023-02-24T06:54:11;3.50;99.90
2190;DHT22;1101;51.056;7.262;2023-02-24T06:56:38;3.50;99.90
2190;DHT22;1101;51.056;7.262;2023-02-24T06:59:07;3.60;99.90
2190;DHT22;1101;51.056;7.262;2023-02-24T07:01:38;3.60;99.90
2190;DHT22;1101;51.056;7.262;2023-02-24T07:04:12;3.60;99.90
2190;DHT22;1101;51.056;7.262;2023-02-24T07:06:48;3.60;99.90
2190;DHT22;1101;51.056;7.262;2023-02-24T07:09:20;3.60;99.90
2190;DHT22;1101;51.056;7.262;2023-02-24T07:11:50;3.60;99.90
2190;DHT22;1101;51.056;7.262;2023-02-24T07:14:20;3.70;99.90
2190;DHT22;1101;51.056;7.262;2023-02-24T07:16:48;3.70;99.90
2190;DHT22;1101;51.056;7.262;2023-02-24T07:19:24;3.70;99.90
2190;DHT22;1101;51.056;7.262;2023-02-24T07:21:54;3.70;99.90
2190;DHT22;1101;51.056;7.262;2023-02-24T07:24:27;3.70;99.90
2190;DHT22;1101;51.056;7.262;2023-02-24T07:27:00;3.80;99.90
2190;DHT22;1101;51.056;7.262;2023-02-24T07:29:29;3.80;99.90
2190;DHT22;1101;51.056;7.262;2023-02-24T07:31:58;3.80;99.90
2190;DHT22;1101;51.056;7.262;2023-02-24T07:34:31;3.80;99.90
2190;DHT22;1101;51.056;7.262;2023-02-24T07:36:59;3.80;99.90
2190;DHT22;1101;51.056;7.262;2023-02-24T07:39:32;3.80;99.90
2190;DHT22;1101;51.056;7.262;2023-02-24T07:42:00;3.80;99.90
2190;DHT22;1101;51.056;7.262;2023-02-24T07:44:28;3.80;99.90
2190;DHT22;1101;51.056;7.262;2023-02-24T07:46:56;3.90;99.90
2190;DHT22;1101;51.056;7.262;2023-02-24T07:49:25;3.80;99.90
2190;DHT22;1101;51.056;7.262;2023-02-24T07:51:57;3.90;99.90
2190;DHT22;1101;51.056;7.262;2023-02-24T07:54:26;3.90;99.90
2190;DHT22;1101;51.056;7.262;2023-02-24T07:56:56;3.90;99.90
2190;DHT22;1101;51.056;7.262;2023-02-24T07:59:27;3.90;99.90
2190;DHT22;1101;51.056;7.262;2023-02-24T08:01:55;3.90;99.90
2190;DHT22;1101;51.056;7.262;2023-02-24T08:04:26;3.90;99.90
2190;DHT22;1101;51.056;7.262;2023-02-24T08:06:56;3.90;99.90
2190;DHT22;1101;51.056;7.262;2023-02-24T08:09:29;4.00;99.90
2190;DHT22;1101;51.056;7.262;2023-02-24T08:12:16;4.00;99.90
2190;DHT22;1101;51.056;7.262;2023-02-24T08:14:48;4.00;99.90
2190;DHT22;1101;51.056;7.262;2023-02-24T08:17:18;4.00;99.90
2190;DHT22;1101;51.056;7.262;2023-02-24T08:19:47;4.00;99.90
2190;DHT22;1101;51.056;7.262;2023-02-24T08:22:17;4.10;99.90
2190;DHT22;1101;51.056;7.262;2023-02-24T08:24:52;4.10;99.90
2190;DHT22;1101;51.056;7.262;2023-02-24T08:27:21;4.10;99.90
2190;DHT22;1101;51.056;7.262;2023-02-24T08:29:51;4.10;99.90
2190;DHT22;1101;51.056;7.262;2023-02-24T08:32:26;4.10;99.90
2190;DHT22;1101;51.056;7.262;2023-02-24T08:35:00;4.20;99.90
2190;DHT22;1101;51.056;7.262;2023-02-24T08:37:33;4.10;99.90
2190;DHT22;1101;51.056;7.262;2023-02-24T08:40:07;4.20;99.90
2190;DHT22;1101;51.056;7.262;2023-02-24T08:42:55;4.20;99.90
2190;DHT22;1101;51.056;7.262;2023-02-24T08:45:24;4.20;99.90
2190;DHT22;1101;51.056;7.262;2023-02-24T08:47:54;4.20;99.90
2190;DHT22;1101;51.056;7.262;2023-02-24T08:50:26;4.20;99.90
2190;DHT22;1101;51.056;7.262;2023-02-24T08:52:59;4.20;99.90
2190;DHT22;1101;51.056;7.262;2023-02-24T08:55:27;4.20;99.90
2190;DHT22;1101;51.056;7.262;2023-02-24T08:57:58;4.20;99.90
2190;DHT22;1101;51.056;7.262;2023-02-24T09:00:28;4.30;99.90
2190;DHT22;1101;51.056;7.262;2023-02-24T09:03:15;4.30;99.90
2190;DHT22;1101;51.056;7.262;2023-02-24T09:05:58;4.30;99.90
2190;DHT22;1101;51.056;7.262;2023-02-24T09:08:27;4.30;99.90
2190;DHT22;1101;51.056;7.262;2023-02-24T09:11:00;4.30;99.90
2190;DHT22;1101;51.056;7.262;2023-02-24T09:13:34;4.30;99.90
2190;DHT22;1101;51.056;7.262;2023-02-24T09:16:03;4.30;99.90
2190;DHT22;1101;51.056;7.262;2023-02-24T09:18:31;4.30;99.90
2190;DHT22;1101;51.056;7.262;2023-02-24T09:21:08;4.30;99.90
2190;DHT22;1101;51.056;7.262;2023-02-24T09:23:54;4.40;99.90
2190;DHT22;1101;51.056;7.262;2023-02-24T09:26:22;4.40;99.90
2190;DHT22;1101;51.056;7.262;2023-02-24T09:28:50;4.40;99.90
2190;DHT22;1101;51.056;7.262;2023-02-24T09:31:22;4.40;99.90
2190;DHT22;1101;51.056;7.262;2023-02-24T09:34:07;4.40;99.90
2190;DHT22;1101;51.056;7.262;2023-02-24T09:36:36;4.40;99.90
2190;DHT22;1101;51.056;7.262;2023-02-24T09:39:11;4.40;99.90
2190;DHT22;1101;51.056;7.262;2023-02-24T09:41:42;4.40;99.90
2190;DHT22;1101;51.056;7.262;2023-02-24T09:44:52;4.40;99.90
2190;DHT22;1101;51.056;7.262;2023-02-24T09:47:24;4.40;99.90
2190;DHT22;1101;51.056;7.262;2023-02-24T09:50:16;4.40;99.90
2190;DHT22;1101;51.056;7.262;2023-02-24T09:53:11;4.40;99.90
2190;DHT22;1101;51.056;7.262;2023-02-24T09:55:48;4.50;99.90
2190;DHT22;1101;51.056;7.262;2023-02-24T09:58:38;4.50;99.90
2190;DHT22;1101;51.056;7.262;2023-02-24T10:01:30;4.60;99.90
2190;DHT22;1101;51.056;7.262;2023-02-24T10:04:06;4.50;99.90
2190;DHT22;1101;51.056;7.262;2023-02-24T10:06:48;4.50;99.90
2190;DHT22;1101;51.056;7.262;2023-02-24T10:09:20;4.50;99.90
2190;DHT22;1101;51.056;7.262;2023-02-24T10:11:57;4.40;99.90
2190;DHT22;1101;51.056;7.262;2023-02-24T10:14:36;4.50;99.90
2190;DHT22;1101;51.056;7.262;2023-02-24T10:17:15;4.40;99.90
2190;DHT22;1101;51.056;7.262;2023-02-24T10:19:58;4.40;99.90
2190;DHT22;1101;51.056;7.262;2023-02-24T10:22:36;4.40;99.90
2190;DHT22;1101;51.056;7.262;2023-02-24T10:25:24;4.40;99.90
2190;DHT22;1101;51.056;7.262;2023-02-24T10:28:04;4.50;99.90
2190;DHT22;1101;51.056;7.262;2023-02-24T10:30:43;4.50;99.90
2190;DHT22;1101;51.056;7.262;2023-02-24T10:33:19;4.50;99.90
2190;DHT22;1101;51.056;7.262;2023-02-24T10:36:03;4.50;99.90
2190;DHT22;1101;51.056;7.262;2023-02-24T10:38:35;4.50;99.90
2190;DHT22;1101;51.056;7.262;2023-02-24T10:41:04;4.50;99.90
2190;DHT22;1101;51.056;7.262;2023-02-24T10:43:34;4.50;99.90
2190;DHT22;1101;51.056;7.262;2023-02-24T10:46:26;4.50;99.90
2190;DHT22;1101;51.056;7.262;2023-02-24T10:49:08;4.50;99.90
2190;DHT22;1101;51.056;7.262;2023-02-24T10:51:46;4.40;99.90
2190;DHT22;1101;51.056;7.262;2023-02-24T10:54:21;4.40;99.90
2190;DHT22;1101;51.056;7.262;2023-02-24T10:57:06;4.40;99.90
2190;DHT22;1101;51.056;7.262;2023-02-24T10:59:48;4.40;99.90
2190;DHT22;1101;51.056;7.262;2023-02-24T11:02:48;4.40;99.90
2190;DHT22;1101;51.056;7.262;2023-02-24T11:05:37;4.40;99.90
2190;DHT22;1101;51.056;7.262;2023-02-24T11:08:12;4.40;99.90
2190;DHT22;1101;51.056;7.262;2023-02-24T11:11:07;4.40;99.90
2190;DHT22;1101;51.056;7.262;2023-02-24T11:13:49;4.40;99.90
2190;DHT22;1101;51.056;7.262;2023-02-24T11:16:49;4.40;99.90
2190;DHT22;1101;51.056;7.262;2023-02-24T11:19:42;4.40;99.90
2190;DHT22;1101;51.056;7.262;2023-02-24T11:22:14;4.40;99.90
2190;DHT22;1101;51.056;7.262;2023-02-24T11:24:43;4.40;99.90
2190;DHT22;1101;51.056;7.262;2023-02-24T11:27:14;4.40;99.90
2190;DHT22;1101;51.056;7.262;2023-02-24T11:29:52;4.40;99.90
2190;DHT22;1101;51.056;7.262;2023-02-24T11:32:37;4.40;99.90
2190;DHT22;1101;51.056;7.262;2023-02-24T11:35:16;4.40;99.90
2190;DHT22;1101;51.056;7.262;2023-02-24T11:37:56;4.40;99.90
2190;DHT22;1101;51.056;7.262;2023-02-24T11:40:27;4.40;99.90
2190;DHT22;1101;51.056;7.262;2023-02-24T11:43:00;4.40;99.90
2190;DHT22;1101;51.056;7.262;2023-02-24T11:45:31;4.40;99.90
2190;DHT22;1101;51.056;7.262;2023-02-24T11:48:05;4.40;99.90
2190;DHT22;1101;51.056;7.262;2023-02-24T11:50:43;4.40;99.90
2190;DHT22;1101;51.056;7.262;2023-02-24T11:53:21;4.30;99.90
2190;DHT22;1101;51.056;7.262;2023-02-24T11:55:53;4.30;99.90
2190;DHT22;1101;51.056;7.262;2023-02-24T11:58:31;4.30;99.90
2190;DHT22;1101;51.056;7.262;2023-02-24T12:01:07;4.20;99.90
2190;DHT22;1101;51.056;7.262;2023-02-24T12:03:43;4.20;99.90
2190;DHT22;1101;51.056;7.262;2023-02-24T12:06:20;4.20;99.90
2190;DHT22;1101;51.056;7.262;2023-02-24T12:08:52;4.20;99.90
2190;DHT22;1101;51.056;7.262;2023-02-24T12:11:33;4.20;99.90
2190;DHT22;1101;51.056;7.262;2023-02-24T12:14:14;4.10;99.90
2190;DHT22;1101;51.056;7.262;2023-02-24T12:16:49;4.10;99.90
2190;DHT22;1101;51.056;7.262;2023-02-24T12:19:26;4.10;99.90
2190;DHT22;1101;51.056;7.262;2023-02-24T12:22:00;4.10;99.90
2190;DHT22;1101;51.056;7.262;2023-02-24T12:24:31;4.10;99.90
2190;DHT22;1101;51.056;7.262;2023-02-24T12:27:08;4.10;99.90
2190;DHT22;1101;51.056;7.262;2023-02-24T12:29:52;4.10;99.90
2190;DHT22;1101;51.056;7.262;2023-02-24T12:32:29;4.10;99.90
2190;DHT22;1101;51.056;7.262;2023-02-24T12:35:12;4.10;99.90
2190;DHT22;1101;51.056;7.262;2023-02-24T12:37:59;4.10;99.90
2190;DHT22;1101;51.056;7.262;2023-02-24T12:40:38;4.10;99.90
2190;DHT22;1101;51.056;7.262;2023-02-24T12:43:15;4.00;99.90
2190;DHT22;1101;51.056;7.262;2023-02-24T12:45:50;4.00;99.90
2190;DHT22;1101;51.056;7.262;2023-02-24T12:48:37;4.00;99.90
2190;DHT22;1101;51.056;7.262;2023-02-24T12:51:16;4.00;99.90
2190;DHT22;1101;51.056;7.262;2023-02-24T12:53:53;4.00;99.90
2190;DHT22;1101;51.056;7.262;2023-02-24T12:56:24;4.00;99.90
2190;DHT22;1101;51.056;7.262;2023-02-24T12:58:58;4.00;99.90
2190;DHT22;1101;51.056;7.262;2023-02-24T13:01:33;4.00;99.90
2190;DHT22;1101;51.056;7.262;2023-02-24T13:04:10;3.90;99.90
2190;DHT22;1101;51.056;7.262;2023-02-24T13:06:52;3.90;99.90
2190;DHT22;1101;51.056;7.262;2023-02-24T13:09:29;4.00;99.90
2190;DHT22;1101;51.056;7.262;2023-02-24T13:12:04;3.90;99.90
2190;DHT22;1101;51.056;7.262;2023-02-24T13:14:35;3.90;99.90
2190;DHT22;1101;51.056;7.262;2023-02-24T13:17:13;3.90;99.90
2190;DHT22;1101;51.056;7.262;2023-02-24T13:19:43;3.80;99.90
2190;DHT22;1101;51.056;7.262;2023-02-24T13:22:27;3.80;99.90
2190;DHT22;1101;51.056;7.262;2023-02-24T13:25:00;3.80;99.90
2190;DHT22;1101;51.056;7.262;2023-02-24T13:27:32;3.80;99.90
2190;DHT22;1101;51.056;7.262;2023-02-24T13:30:05;3.80;99.90
2190;DHT22;1101;51.056;7.262;2023-02-24T13:32:35;3.80;99.90
2190;DHT22;1101;51.056;7.262;2023-02-24T13:35:05;3.80;99.90
2190;DHT22;1101;51.056;7.262;2023-02-24T13:37:36;3.70;99.90
2190;DHT22;1101;51.056;7.262;2023-02-24T13:40:22;3.80;99.90
2190;DHT22;1101;51.056;7.262;2023-02-24T13:42:58;3.70;99.90
2190;DHT22;1101;51.056;7.262;2023-02-24T13:45:27;3.70;99.90
2190;DHT22;1101;51.056;7.262;2023-02-24T13:48:15;3.60;99.90
2190;DHT22;1101;51.056;7.262;2023-02-24T13:50:58;3.70;99.90
2190;DHT22;1101;51.056;7.262;2023-02-24T13:53:38;3.60;99.90
2190;DHT22;1101;51.056;7.262;2023-02-24T13:56:22;3.60;99.90
2190;DHT22;1101;51.056;7.262;2023-02-24T14:01:48;3.60;99.90
2190;DHT22;1101;51.056;7.262;2023-02-24T14:04:19;3.50;99.90
2190;DHT22;1101;51.056;7.262;2023-02-24T14:06:51;3.60;99.90
2190;DHT22;1101;51.056;7.262;2023-02-24T14:09:24;3.50;99.90
2190;DHT22;1101;51.056;7.262;2023-02-24T14:11:57;3.50;99.90
2190;DHT22;1101;51.056;7.262;2023-02-24T14:14:27;3.50;99.90
2190;DHT22;1101;51.056;7.262;2023-02-24T14:16:56;3.50;99.90
2190;DHT22;1101;51.056;7.262;2023-02-24T14:19:24;3.50;99.90
2190;DHT22;1101;51.056;7.262;2023-02-24T14:21:53;3.40;99.90
2190;DHT22;1101;51.056;7.262;2023-02-24T14:24:23;3.40;99.90
2190;DHT22;1101;51.056;7.262;2023-02-24T14:26:54;3.40;99.90
2190;DHT22;1101;51.056;7.262;2023-02-24T14:29:25;3.40;99.90
2190;DHT22;1101;51.056;7.262;2023-02-24T14:31:57;3.40;99.90
2190;DHT22;1101;51.056;7.262;2023-02-24T14:34:27;3.40;99.90
2190;DHT22;1101;51.056;7.262;2023-02-24T14:36:59;3.40;99.90
2190;DHT22;1101;51.056;7.262;2023-02-24T14:39:30;3.40;99.90
2190;DHT22;1101;51.056;7.262;2023-02-24T14:42:10;3.40;99.90
2190;DHT22;1101;51.056;7.262;2023-02-24T14:44:44;3.40;99.90
2190;DHT22;1101;51.056;7.262;2023-02-24T14:47:14;3.30;99.90
2190;DHT22;1101;51.056;7.262;2023-02-24T14:49:52;3.30;99.90
2190;DHT22;1101;51.056;7.262;2023-02-24T14:52:26;3.30;99.90
2190;DHT22;1101;51.056;7.262;2023-02-24T14:55:00;3.30;99.90
2190;DHT22;1101;51.056;7.262;2023-02-24T14:57:32;3.30;99.90
2190;DHT22;1101;51.056;7.262;2023-02-24T15:00:04;3.30;99.90
2190;DHT22;1101;51.056;7.262;2023-02-24T15:02:40;3.30;99.90
2190;DHT22;1101;51.056;7.262;2023-02-24T15:05:09;3.30;99.90
2190;DHT22;1101;51.056;7.262;2023-02-24T15:07:38;3.30;99.90
2190;DHT22;1101;51.056;7.262;2023-02-24T15:10:17;3.30;99.90
2190;DHT22;1101;51.056;7.262;2023-02-24T15:12:48;3.30;99.90
2190;DHT22;1101;51.056;7.262;2023-02-24T15:15:20;3.30;99.90
2190;DHT22;1101;51.056;7.262;2023-02-24T15:17:53;3.30;99.90
2190;DHT22;1101;51.056;7.262;2023-02-24T15:20:31;3.30;99.90
2190;DHT22;1101;51.056;7.262;2023-02-24T15:22:59;3.30;99.90
2190;DHT22;1101;51.056;7.262;2023-02-24T15:25:30;3.30;99.90
2190;DHT22;1101;51.056;7.262;2023-02-24T15:28:21;3.30;99.90
2190;DHT22;1101;51.056;7.262;2023-02-24T15:30:58;3.30;99.90
2190;DHT22;1101;51.056;7.262;2023-02-24T15:33:32;3.30;99.90
2190;DHT22;1101;51.056;7.262;2023-02-24T15:36:06;3.30;99.90
2190;DHT22;1101;51.056;7.262;2023-02-24T15:38:37;3.30;99.90
2190;DHT22;1101;51.056;7.262;2023-02-24T15:41:07;3.30;99.90
2190;DHT22;1101;51.056;7.262;2023-02-24T15:43:38;3.30;99.90
2190;DHT22;1101;51.056;7.262;2023-02-24T15:46:20;3.40;99.90
2190;DHT22;1101;51.056;7.262;2023-02-24T15:48:51;3.40;99.90
2190;DHT22;1101;51.056;7.262;2023-02-24T15:51:24;3.40;99.90
2190;DHT22;1101;51.056;7.262;2023-02-24T15:53:54;3.40;99.90
2190;DHT22;1101;51.056;7.262;2023-02-24T15:56:23;3.40;99.90
2190;DHT22;1101;51.056;7.262;2023-02-24T15:58:51;3.40;99.90
2190;DHT22;1101;51.056;7.262;2023-02-24T16:01:19;3.40;99.90
2190;DHT22;1101;51.056;7.262;2023-02-24T16:03:47;3.40;99.90
2190;DHT22;1101;51.056;7.262;2023-02-24T16:06:17;3.50;99.90
2190;DHT22;1101;51.056;7.262;2023-02-24T16:08:47;3.50;99.90
2190;DHT22;1101;51.056;7.262;2023-02-24T16:11:17;3.50;99.90
2190;DHT22;1101;51.056;7.262;2023-02-24T16:13:51;3.50;99.90
2190;DHT22;1101;51.056;7.262;2023-02-24T16:16:20;3.50;99.90
2190;DHT22;1101;51.056;7.262;2023-02-24T16:18:49;3.50;99.90
2190;DHT22;1101;51.056;7.262;2023-02-24T16:21:17;3.50;99.90
2190;DHT22;1101;51.056;7.262;2023-02-24T16:23:45;3.60;99.90
2190;DHT22;1101;51.056;7.262;2023-02-24T16:26:15;3.60;99.90
2190;DHT22;1101;51.056;7.262;2023-02-24T16:28:44;3.60;99.90
2190;DHT22;1101;51.056;7.262;2023-02-24T16:31:16;3.60;99.90
2190;DHT22;1101;51.056;7.262;2023-02-24T16:33:44;3.60;99.90
2190;DHT22;1101;51.056;7.262;2023-02-24T16:36:21;3.60;99.90
2190;DHT22;1101;51.056;7.262;2023-02-24T16:38:50;3.60;99.90
2190;DHT22;1101;51.056;7.262;2023-02-24T16:41:18;3.60;99.90
2190;DHT22;1101;51.056;7.262;2023-02-24T16:43:46;3.60;99.90
2190;DHT22;1101;51.056;7.262;2023-02-24T16:46:17;3.70;99.90
2190;DHT22;1101;51.056;7.262;2023-02-24T16:48:48;3.70;99.90
2190;DHT22;1101;51.056;7.262;2023-02-24T16:51:16;3.70;99.90
2190;DHT22;1101;51.056;7.262;2023-02-24T16:53:44;3.70;99.90
2190;DHT22;1101;51.056;7.262;2023-02-24T16:56:12;3.70;99.90
2190;DHT22;1101;51.056;7.262;2023-02-24T16:58:41;3.70;99.90
2190;DHT22;1101;51.056;7.262;2023-02-24T17:01:15;3.70;99.90
2190;DHT22;1101;51.056;7.262;2023-02-24T17:03:47;3.70;99.90
2190;DHT22;1101;51.056;7.262;2023-02-24T17:06:16;3.70;99.90
2190;DHT22;1101;51.056;7.262;2023-02-24T17:08:47;3.70;99.90